Time;durP1;ratioP1;P1;durP2;ratioP2;P2;SDS_P1;SDS_P2;PMS_P1;PMS_P2;Temp;Humidity;BMP_temperature;BMP_pressure;BME280_temperature;BME280_humidity;BME280_pressure;Samples;Min_cycle;Max_cycle;Signal;HPM_P1;HPM_P2
2022/06/04 00:00:50;;;;;;;43.90;26.60;;;;;;;;;;5063243;28;20083;-81
2022/06/04 00:03:17;;;;;;;46.45;29.02;;;;;;;;;;5052680;28;20020;-80
2022/06/04 00:05:45;;;;;;;47.53;27.48;;;;;;;;;;5053184;28;20075;-80
2022/06/04 00:08:12;;;;;;;39.75;24.45;;;;;;;;;;5057413;28;20059;-79
2022/06/04 00:16:10;;;;;;;42.30;23.92;;;;;;;;;;5062095;28;20076;-82
2022/06/04 00:18:37;;;;;;;41.72;22.38;;;;;;;;;;5052782;28;20376;-81
2022/06/04 00:21:03;;;;;;;39.13;23.85;;;;;;;;;;5053926;28;20052;-81
2022/06/04 00:23:29;;;;;;;31.83;21.88;;;;;;;;;;5053458;28;20013;-82
2022/06/04 00:25:57;;;;;;;39.03;23.65;;;;;;;;;;5056566;28;20048;-82
2022/06/04 00:28:24;;;;;;;38.30;23.30;;;;;;;;;;5058560;28;20031;-82
2022/06/04 00:30:51;;;;;;;32.38;22.65;;;;;;;;;;5055609;28;20021;-79
2022/06/04 00:33:19;;;;;;;31.70;22.05;;;;;;;;;;5061713;28;20487;-82
2022/06/04 00:35:48;;;;;;;37.80;22.20;;;;;;;;;;5053405;28;20032;-79
2022/06/04 00:38:15;;;;;;;35.30;23.35;;;;;;;;;;5053856;28;20029;-82
2022/06/04 00:40:51;;;;;;;32.15;22.38;;;;;;;;;;5063508;28;20435;-83
2022/06/04 00:43:17;;;;;;;38.30;24.65;;;;;;;;;;5054064;28;20391;-87
2022/06/04 00:46:02;;;;;;;72.53;37.15;;;;;;;;;;5054306;28;20024;-85
2022/06/04 00:48:28;;;;;;;77.65;39.38;;;;;;;;;;5055313;28;20111;-84
2022/06/04 00:50:55;;;;;;;76.65;38.15;;;;;;;;;;5055596;28;20396;-81
2022/06/04 00:53:21;;;;;;;80.65;39.28;;;;;;;;;;5071802;28;20048;-79
2022/06/04 00:55:54;;;;;;;68.00;37.97;;;;;;;;;;5065618;28;20078;-83
2022/06/04 00:58:21;;;;;;;66.55;34.67;;;;;;;;;;5044101;28;20008;-81
2022/06/04 01:01:00;;;;;;;57.97;32.80;;;;;;;;;;5071722;28;20044;-83
2022/06/04 01:03:38;;;;;;;50.63;31.52;;;;;;;;;;5068492;28;20040;-82
2022/06/04 01:06:07;;;;;;;45.38;30.60;;;;;;;;;;5059821;28;20047;-82
2022/06/04 01:08:51;;;;;;;43.97;27.83;;;;;;;;;;5070595;28;20025;-84
2022/06/04 01:11:21;;;;;;;43.53;25.75;;;;;;;;;;5072282;28;20023;-82
2022/06/04 01:13:54;;;;;;;39.03;25.10;;;;;;;;;;5072006;28;20031;-82
2022/06/04 01:16:24;;;;;;;33.72;23.40;;;;;;;;;;5060452;28;20095;-84
2022/06/04 01:18:53;;;;;;;35.53;22.77;;;;;;;;;;5052328;28;20051;-81
2022/06/04 01:21:22;;;;;;;36.47;20.90;;;;;;;;;;5051286;28;20048;-83
2022/06/04 01:23:51;;;;;;;46.25;23.60;;;;;;;;;;5051746;28;20020;-83
2022/06/04 01:26:26;;;;;;;35.63;22.77;;;;;;;;;;5062085;28;20103;-82
2022/06/04 01:28:56;;;;;;;33.90;21.00;;;;;;;;;;5072354;28;20032;-82
2022/06/04 01:31:30;;;;;;;33.28;19.05;;;;;;;;;;5071056;28;20111;-83
2022/06/04 01:33:59;;;;;;;29.42;19.40;;;;;;;;;;5071866;28;20490;-81
2022/06/04 01:36:40;;;;;;;33.85;22.23;;;;;;;;;;5069995;28;20037;-82
2022/06/04 01:39:15;;;;;;;37.20;22.45;;;;;;;;;;5071693;28;20011;-83
2022/06/04 01:41:43;;;;;;;33.92;22.20;;;;;;;;;;5071483;28;20085;-82
2022/06/04 01:44:14;;;;;;;34.40;20.77;;;;;;;;;;5071178;28;20013;-81
2022/06/04 01:46:48;;;;;;;39.83;23.45;;;;;;;;;;5058519;28;20086;-81
2022/06/04 01:49:23;;;;;;;46.30;25.95;;;;;;;;;;5051345;28;20005;-82
2022/06/04 01:51:50;;;;;;;35.97;25.17;;;;;;;;;;5051194;28;20057;-81
2022/06/04 01:54:20;;;;;;;43.47;25.33;;;;;;;;;;5068565;28;20412;-80
2022/06/04 01:56:50;;;;;;;57.78;27.10;;;;;;;;;;5071430;28;20052;-80
2022/06/04 01:59:15;;;;;;;;;;;;;;;;;;5071957;28;20028;-82
2022/06/04 02:01:42;;;;;;;55.25;29.08;;;;;;;;;;5071351;28;19931;-82
2022/06/04 02:04:14;;;;;;;79.50;42.40;;;;;;;;;;5071048;28;20025;-81
2022/06/04 02:06:43;;;;;;;78.82;42.60;;;;;;;;;;5083357;28;20051;-82
2022/06/04 02:09:17;;;;;;;79.60;44.47;;;;;;;;;;5090918;28;20028;-82
2022/06/04 02:11:48;;;;;;;74.78;40.20;;;;;;;;;;5091001;28;20085;-81
2022/06/04 02:14:15;;;;;;;88.32;44.75;;;;;;;;;;5090427;28;20115;-82
2022/06/04 02:16:45;;;;;;;87.30;47.35;;;;;;;;;;5079406;28;20023;-80
2022/06/04 02:19:11;;;;;;;80.80;43.17;;;;;;;;;;5072063;28;20099;-82
2022/06/04 02:21:38;;;;;;;88.35;45.83;;;;;;;;;;5071914;28;20492;-82
2022/06/04 02:24:04;;;;;;;91.82;45.22;;;;;;;;;;5071705;28;20039;-82
2022/06/04 02:26:30;;;;;;;83.15;43.40;;;;;;;;;;5078884;28;20023;-82
2022/06/04 02:28:58;;;;;;;82.18;45.38;;;;;;;;;;5090999;28;20016;-81
2022/06/04 02:31:33;;;;;;;79.03;43.03;;;;;;;;;;5088521;28;20065;-82
2022/06/04 02:33:59;;;;;;;80.70;43.17;;;;;;;;;;5091223;28;20023;-81
2022/06/04 02:36:33;;;;;;;91.57;48.58;;;;;;;;;;5090932;28;20027;-82
2022/06/04 02:39:17;;;;;;;99.10;48.45;;;;;;;;;;5090989;28;20467;-81
2022/06/04 02:41:51;;;;;;;92.40;47.35;;;;;;;;;;5080236;28;20027;-80
2022/06/04 02:44:20;;;;;;;88.53;46.63;;;;;;;;;;5071121;28;20021;-81
2022/06/04 02:46:54;;;;;;;94.47;48.58;;;;;;;;;;5071127;28;20020;-81
2022/06/04 02:49:24;;;;;;;93.32;50.72;;;;;;;;;;5070483;28;20027;-82
2022/06/04 02:51:53;;;;;;;95.00;49.83;;;;;;;;;;5081778;28;20476;-83
2022/06/04 02:54:33;;;;;;;100.63;51.60;;;;;;;;;;5072930;28;20060;-81
2022/06/04 02:57:00;;;;;;;95.07;52.75;;;;;;;;;;5070731;28;20266;-82
2022/06/04 02:59:27;;;;;;;89.40;51.60;;;;;;;;;;5070728;28;20017;-81
2022/06/04 03:01:57;;;;;;;76.75;46.05;;;;;;;;;;5059509;28;20052;-81
2022/06/04 03:04:24;;;;;;;87.82;50.08;;;;;;;;;;5032101;28;20021;-82
2022/06/04 03:06:50;;;;;;;89.07;49.80;;;;;;;;;;5050522;28;20025;-82
2022/06/04 03:09:18;;;;;;;82.80;47.53;;;;;;;;;;5050630;28;20009;-82
2022/06/04 03:11:45;;;;;;;89.80;50.55;;;;;;;;;;5059904;28;20059;-82
2022/06/04 03:14:13;;;;;;;78.68;48.47;;;;;;;;;;5070661;28;20024;-83
2022/06/04 03:16:40;;;;;;;88.47;50.10;;;;;;;;;;5070440;28;20031;-83
2022/06/04 03:19:07;;;;;;;84.53;47.55;;;;;;;;;;5070333;28;20017;-81
2022/06/04 03:21:35;;;;;;;85.78;49.45;;;;;;;;;;5061928;28;20001;-81
2022/06/04 03:24:01;;;;;;;99.63;50.70;;;;;;;;;;5050193;28;20454;-81
2022/06/04 03:26:27;;;;;;;87.47;49.30;;;;;;;;;;5052173;28;20103;-83
2022/06/04 03:28:54;;;;;;;90.35;51.38;;;;;;;;;;5054620;28;20017;-81
2022/06/04 03:31:20;;;;;;;84.40;48.40;;;;;;;;;;5056081;28;20108;-82
2022/06/04 03:33:46;;;;;;;88.75;49.67;;;;;;;;;;5053865;28;20021;-81
2022/06/04 03:36:12;;;;;;;93.35;51.17;;;;;;;;;;5054178;28;20044;-83
2022/06/04 03:38:39;;;;;;;80.50;46.67;;;;;;;;;;5054030;28;20082;-83
2022/06/04 03:41:05;;;;;;;90.75;50.25;;;;;;;;;;5054745;28;20350;-82
2022/06/04 03:43:31;;;;;;;85.32;51.03;;;;;;;;;;5053824;28;20025;-82
2022/06/04 03:45:57;;;;;;;87.75;51.83;;;;;;;;;;5053817;28;20058;-82
2022/06/04 03:48:23;;;;;;;84.03;46.33;;;;;;;;;;5053997;28;20442;-80
2022/06/04 03:50:50;;;;;;;96.78;50.50;;;;;;;;;;5055623;28;20017;-82
2022/06/04 03:53:16;;;;;;;89.13;48.08;;;;;;;;;;5073477;28;20044;-82
2022/06/04 03:55:42;;;;;;;91.70;48.83;;;;;;;;;;5073763;28;20027;-82
2022/06/04 03:58:11;;;;;;;95.15;52.58;;;;;;;;;;5073394;28;20019;-83
2022/06/04 04:00:38;;;;;;;95.88;50.97;;;;;;;;;;5073189;28;20047;-81
2022/06/04 04:03:06;;;;;;;94.45;47.28;;;;;;;;;;5053736;28;20023;-82
2022/06/04 04:05:33;;;;;;;90.88;52.20;;;;;;;;;;5053402;28;20048;-82
2022/06/04 04:08:00;;;;;;;92.18;47.83;;;;;;;;;;5053714;28;20084;-82
2022/06/04 04:10:28;;;;;;;94.55;49.17;;;;;;;;;;5052928;28;20027;-82
2022/06/04 04:12:54;;;;;;;86.63;46.15;;;;;;;;;;5053388;28;20027;-82
2022/06/04 04:15:21;;;;;;;93.65;50.08;;;;;;;;;;5053241;28;20036;-82
2022/06/04 04:17:47;;;;;;;88.20;45.10;;;;;;;;;;5053347;28;20025;-82
2022/06/04 04:20:18;;;;;;;81.78;45.88;;;;;;;;;;5052922;28;20548;-80
2022/06/04 04:22:44;;;;;;;78.85;43.75;;;;;;;;;;5068936;28;20085;-82
2022/06/04 04:25:12;;;;;;;86.38;46.55;;;;;;;;;;5074048;28;20013;-82
2022/06/04 04:27:39;;;;;;;93.03;46.28;;;;;;;;;;5074235;28;20024;-82
2022/06/04 04:30:06;;;;;;;74.65;42.10;;;;;;;;;;5065465;28;20036;-82
2022/06/04 04:32:33;;;;;;;82.57;43.70;;;;;;;;;;5069806;28;20025;-81
2022/06/04 04:35:00;;;;;;;70.30;39.50;;;;;;;;;;5072571;28;20078;-82
2022/06/04 04:37:26;;;;;;;79.75;41.13;;;;;;;;;;5071835;28;20027;-82
2022/06/04 04:39:52;;;;;;;71.82;43.88;;;;;;;;;;5048204;28;20025;-82
2022/06/04 04:42:19;;;;;;;78.07;41.38;;;;;;;;;;5052786;28;20017;-81
2022/06/04 04:44:45;;;;;;;71.57;42.22;;;;;;;;;;5052689;28;20013;-82
2022/06/04 04:47:11;;;;;;;77.97;44.80;;;;;;;;;;5052727;28;20025;-82
2022/06/04 04:49:37;;;;;;;73.88;44.10;;;;;;;;;;5053253;28;20084;-82
2022/06/04 04:52:04;;;;;;;77.03;43.35;;;;;;;;;;5052516;28;20032;-81
2022/06/04 04:54:30;;;;;;;77.43;44.67;;;;;;;;;;5052590;28;20045;-82
2022/06/04 04:56:56;;;;;;;80.60;44.33;;;;;;;;;;5034865;28;20029;-82
2022/06/04 04:59:22;;;;;;;77.00;42.17;;;;;;;;;;5053035;28;20104;-83
2022/06/04 05:01:49;;;;;;;82.43;45.78;;;;;;;;;;5053191;28;20107;-83
2022/06/04 05:04:15;;;;;;;82.47;46.15;;;;;;;;;;5052487;28;20025;-83
2022/06/04 05:06:41;;;;;;;80.97;45.35;;;;;;;;;;5052358;28;20083;-81
2022/06/04 05:09:08;;;;;;;87.78;46.95;;;;;;;;;;5052525;28;20108;-83
2022/06/04 05:11:34;;;;;;;90.55;49.92;;;;;;;;;;5059157;28;20488;-82
2022/06/04 05:14:02;;;;;;;78.30;42.17;;;;;;;;;;5072668;28;20081;-82
2022/06/04 05:16:30;;;;;;;85.65;45.28;;;;;;;;;;5073360;28;20029;-82
2022/06/04 05:18:56;;;;;;;84.93;48.00;;;;;;;;;;5072480;28;20020;-82
2022/06/04 05:21:24;;;;;;;79.38;45.35;;;;;;;;;;5036784;28;20391;-84
2022/06/04 05:23:51;;;;;;;96.22;50.97;;;;;;;;;;5035679;28;20107;-83
2022/06/04 05:26:17;;;;;;;77.68;43.40;;;;;;;;;;5054999;28;20476;-83
2022/06/04 05:28:46;;;;;;;78.57;46.03;;;;;;;;;;5054423;28;20035;-82
2022/06/04 05:31:13;;;;;;;85.78;46.33;;;;;;;;;;5068919;28;20385;-83
2022/06/04 05:33:39;;;;;;;89.90;49.05;;;;;;;;;;5074296;28;20034;-82
2022/06/04 05:36:05;;;;;;;83.80;47.47;;;;;;;;;;5075374;28;20016;-83
2022/06/04 05:38:34;;;;;;;71.47;43.80;;;;;;;;;;5074689;28;20027;-81
2022/06/04 05:41:01;;;;;;;78.03;46.30;;;;;;;;;;5078502;28;20021;-82
2022/06/04 05:43:28;;;;;;;71.35;43.63;;;;;;;;;;5073693;28;20025;-82
2022/06/04 05:45:58;;;;;;;73.72;41.08;;;;;;;;;;5073441;28;20020;-81
2022/06/04 05:48:25;;;;;;;72.45;44.50;;;;;;;;;;5071590;28;20028;-82
2022/06/04 05:50:51;;;;;;;78.40;44.83;;;;;;;;;;5071573;28;20024;-82
2022/06/04 05:53:18;;;;;;;73.00;44.05;;;;;;;;;;5071111;28;20040;-82
2022/06/04 05:55:44;;;;;;;79.47;45.92;;;;;;;;;;5065960;28;20031;-81
2022/06/04 05:58:10;;;;;;;84.43;50.25;;;;;;;;;;5051239;28;20017;-82
2022/06/04 06:00:37;;;;;;;83.90;47.40;;;;;;;;;;5033572;28;20055;-82
2022/06/04 06:03:03;;;;;;;75.80;45.35;;;;;;;;;;5051087;28;20013;-82
2022/06/04 06:05:31;;;;;;;68.53;41.72;;;;;;;;;;5051151;28;20466;-82
2022/06/04 06:07:58;;;;;;;78.40;42.53;;;;;;;;;;5053622;28;20118;-82
2022/06/04 06:10:24;;;;;;;70.63;41.00;;;;;;;;;;5052166;28;20032;-81
2022/06/04 06:12:53;;;;;;;78.22;42.85;;;;;;;;;;5051847;28;20017;-82
2022/06/04 06:15:20;;;;;;;77.47;47.93;;;;;;;;;;5051720;28;20496;-81
2022/06/04 06:17:46;;;;;;;78.30;49.20;;;;;;;;;;5051037;28;20040;-83
2022/06/04 06:20:12;;;;;;;84.28;47.35;;;;;;;;;;5051241;28;20021;-82
2022/06/04 06:22:39;;;;;;;74.50;44.75;;;;;;;;;;5065044;28;20485;-82
2022/06/04 06:25:06;;;;;;;68.68;43.75;;;;;;;;;;5070895;28;20039;-82
2022/06/04 06:27:33;;;;;;;74.18;42.55;;;;;;;;;;5071169;28;20063;-82
2022/06/04 06:29:59;;;;;;;67.68;42.75;;;;;;;;;;5070415;28;20021;-81
2022/06/04 06:32:26;;;;;;;74.18;41.03;;;;;;;;;;5070709;28;20035;-82
2022/06/04 06:34:52;;;;;;;76.82;43.25;;;;;;;;;;5070394;28;20024;-82
2022/06/04 06:37:19;;;;;;;83.25;44.20;;;;;;;;;;5051950;28;20017;-81
2022/06/04 06:39:45;;;;;;;65.57;42.42;;;;;;;;;;5051371;28;20465;-81
2022/06/04 06:42:11;;;;;;;82.50;42.85;;;;;;;;;;5050446;28;20013;-82
2022/06/04 06:44:38;;;;;;;74.57;43.40;;;;;;;;;;5050403;28;20064;-82
2022/06/04 06:47:04;;;;;;;73.05;42.92;;;;;;;;;;5032080;28;20017;-81
2022/06/04 06:49:30;;;;;;;75.20;44.45;;;;;;;;;;5050234;28;20025;-82
2022/06/04 06:51:58;;;;;;;74.82;42.83;;;;;;;;;;5050630;28;20464;-80
2022/06/04 06:54:25;;;;;;;81.47;44.03;;;;;;;;;;5053813;28;20044;-81
2022/06/04 06:56:52;;;;;;;75.95;44.10;;;;;;;;;;5070403;28;20029;-81
2022/06/04 06:59:24;;;;;;;70.60;45.72;;;;;;;;;;5070206;28;20020;-82
2022/06/04 07:01:51;;;;;;;79.15;50.60;;;;;;;;;;5069906;28;20044;-82
2022/06/04 07:04:18;;;;;;;79.95;49.97;;;;;;;;;;5070417;28;20020;-82
2022/06/04 07:06:46;;;;;;;86.75;48.65;;;;;;;;;;5070560;28;20025;-81
2022/06/04 07:09:16;;;;;;;76.90;45.05;;;;;;;;;;5070481;28;20028;-82
2022/06/04 07:11:42;;;;;;;71.03;43.00;;;;;;;;;;5070227;28;20035;-82
2022/06/04 07:14:09;;;;;;;72.00;44.58;;;;;;;;;;5070031;28;20514;-82
2022/06/04 07:16:35;;;;;;;84.95;52.47;;;;;;;;;;5070322;28;20423;-82
2022/06/04 07:19:02;;;;;;;88.40;47.47;;;;;;;;;;5071637;28;20081;-81
2022/06/04 07:21:29;;;;;;;90.10;49.30;;;;;;;;;;5070663;28;20016;-82
2022/06/04 07:23:55;;;;;;;73.03;44.08;;;;;;;;;;5070071;28;20063;-84
2022/06/04 07:26:21;;;;;;;74.47;43.20;;;;;;;;;;5070174;28;20059;-82
2022/06/04 07:28:48;;;;;;;75.65;43.70;;;;;;;;;;5070202;28;20021;-82
2022/06/04 07:31:14;;;;;;;74.28;41.03;;;;;;;;;;5062856;28;20008;-82
2022/06/04 07:33:47;;;;;;;76.13;43.63;;;;;;;;;;5049772;28;20040;-81
2022/06/04 07:36:18;;;;;;;79.75;45.15;;;;;;;;;;5049948;28;20029;-82
2022/06/04 07:38:45;;;;;;;81.10;45.75;;;;;;;;;;5049749;28;20086;-82
2022/06/04 07:41:30;;;;;;;85.03;43.22;;;;;;;;;;5050314;28;20485;-82
2022/06/04 07:43:56;;;;;;;72.07;43.65;;;;;;;;;;5051506;28;20051;-82
2022/06/04 07:46:24;;;;;;;71.60;46.30;;;;;;;;;;5050347;28;20112;-82
2022/06/04 07:48:51;;;;;;;67.28;42.47;;;;;;;;;;5050021;28;20009;-81
2022/06/04 07:51:17;;;;;;;75.22;43.53;;;;;;;;;;5049495;28;20060;-82
2022/06/04 07:53:44;;;;;;;73.35;45.85;;;;;;;;;;5049583;28;20592;-82
2022/06/04 07:56:12;;;;;;;71.20;42.42;;;;;;;;;;5049303;28;20492;-81
2022/06/04 07:58:38;;;;;;;68.72;42.63;;;;;;;;;;5042927;28;20135;-82
2022/06/04 08:01:05;;;;;;;63.10;40.25;;;;;;;;;;5063168;28;20171;-81
2022/06/04 08:03:33;;;;;;;68.30;40.55;;;;;;;;;;5053212;28;20485;-81
2022/06/04 08:05:59;;;;;;;57.85;38.25;;;;;;;;;;5055434;28;20660;-82
2022/06/04 08:08:25;;;;;;;66.28;41.83;;;;;;;;;;5053355;28;20021;-81
2022/06/04 08:10:52;;;;;;;58.95;40.40;;;;;;;;;;5050160;28;20028;-81
2022/06/04 08:15:50;;;;;;;56.30;36.67;;;;;;;;;;5053121;28;20059;-81
2022/06/04 08:18:16;;;;;;;62.63;42.47;;;;;;;;;;5053111;28;20021;-86
2022/06/04 08:20:43;;;;;;;75.22;45.53;;;;;;;;;;5035138;28;20231;-81
2022/06/04 08:23:10;;;;;;;67.57;45.25;;;;;;;;;;5056233;28;20020;-82
2022/06/04 08:25:44;;;;;;;77.40;45.35;;;;;;;;;;5072176;28;21060;-83
2022/06/04 08:28:10;;;;;;;66.57;42.03;;;;;;;;;;5071926;28;20017;-80
2022/06/04 08:30:40;;;;;;;79.88;45.17;;;;;;;;;;5072304;28;20016;-83
2022/06/04 08:33:11;;;;;;;71.40;43.28;;;;;;;;;;5071180;28;20074;-82
2022/06/04 08:35:38;;;;;;;70.43;41.65;;;;;;;;;;5072474;28;20123;-83
2022/06/04 08:38:05;;;;;;;72.93;42.47;;;;;;;;;;5072431;28;20097;-81
2022/06/04 08:40:37;;;;;;;71.25;42.50;;;;;;;;;;5072379;28;20020;-82
2022/06/04 08:43:06;;;;;;;70.90;45.15;;;;;;;;;;5072370;28;20020;-82
2022/06/04 08:45:33;;;;;;;68.30;42.35;;;;;;;;;;5072103;28;20021;-82
2022/06/04 08:47:59;;;;;;;78.93;47.60;;;;;;;;;;5052771;28;20354;-82
2022/06/04 08:50:33;;;;;;;75.75;44.83;;;;;;;;;;5053134;28;20048;-82
2022/06/04 08:53:00;;;;;;;81.65;48.90;;;;;;;;;;5052394;28;20037;-82
2022/06/04 08:58:36;;;;;;;72.20;45.33;;;;;;;;;;5063129;28;20028;-82
2022/06/04 09:01:11;;;;;;;80.03;47.88;;;;;;;;;;5062417;28;20035;-81
2022/06/04 09:03:55;;;;;;;83.95;48.50;;;;;;;;;;5056946;28;20020;-82
2022/06/04 09:06:41;;;;;;;68.60;46.05;;;;;;;;;;5051975;28;20021;-81
2022/06/04 09:09:13;;;;;;;73.50;46.17;;;;;;;;;;5052047;28;20021;-83
2022/06/04 09:11:39;;;;;;;67.93;42.63;;;;;;;;;;5051901;28;20381;-82
2022/06/04 09:14:05;;;;;;;65.32;38.97;;;;;;;;;;5051956;28;20079;-82
2022/06/04 09:16:34;;;;;;;74.55;46.25;;;;;;;;;;5055628;28;20048;-81
2022/06/04 09:19:02;;;;;;;82.10;52.05;;;;;;;;;;5051626;28;20033;-81
2022/06/04 09:21:37;;;;;;;68.85;45.67;;;;;;;;;;5051954;28;20100;-82
2022/06/04 09:24:04;;;;;;;83.00;51.67;;;;;;;;;;5051600;28;20028;-82
2022/06/04 09:26:40;;;;;;;81.45;49.25;;;;;;;;;;5051676;28;20027;-81
2022/06/04 09:29:12;;;;;;;70.47;46.97;;;;;;;;;;5033786;28;20605;-82
2022/06/04 09:31:41;;;;;;;81.10;46.95;;;;;;;;;;5051975;28;20032;-82
2022/06/04 09:34:13;;;;;;;77.15;46.55;;;;;;;;;;5051380;28;20866;-81
2022/06/04 09:36:42;;;;;;;75.57;47.67;;;;;;;;;;5051522;28;20477;-82
2022/06/04 09:39:24;;;;;;;73.03;46.45;;;;;;;;;;5051284;28;20492;-81
2022/06/04 09:42:01;;;;;;;74.28;44.72;;;;;;;;;;5033181;28;20408;-81
2022/06/04 09:44:31;;;;;;;76.22;49.53;;;;;;;;;;5051457;28;20043;-82
2022/06/04 09:47:00;;;;;;;73.50;48.28;;;;;;;;;;5051211;28;20017;-79
2022/06/04 09:49:34;;;;;;;76.72;50.63;;;;;;;;;;5052333;28;20428;-80
2022/06/04 09:52:11;;;;;;;82.85;50.22;;;;;;;;;;5050897;28;20496;-80
2022/06/04 09:54:37;;;;;;;87.00;49.00;;;;;;;;;;5050895;28;20135;-80
2022/06/04 09:57:05;;;;;;;88.80;51.50;;;;;;;;;;5050436;28;20075;-80
2022/06/04 09:59:33;;;;;;;75.50;46.83;;;;;;;;;;5050677;28;20473;-79
2022/06/04 10:02:01;;;;;;;84.13;52.53;;;;;;;;;;5071321;28;20028;-80
2022/06/04 10:04:40;;;;;;;79.90;50.95;;;;;;;;;;5070672;28;20398;-79
2022/06/04 10:07:07;;;;;;;78.38;51.58;;;;;;;;;;5070898;28;20097;-80
2022/06/04 10:12:21;;;;;;;73.00;48.15;;;;;;;;;;5070642;28;20380;-79
2022/06/04 10:15:00;;;;;;;81.43;49.78;;;;;;;;;;5070286;28;20042;-80
2022/06/04 10:17:34;;;;;;;80.95;50.55;;;;;;;;;;5070375;28;20427;-81
2022/06/04 10:20:01;;;;;;;73.75;48.75;;;;;;;;;;5069850;28;20388;-78
2022/06/04 10:22:27;;;;;;;76.85;48.17;;;;;;;;;;5070264;28;20449;-78
2022/06/04 10:24:54;;;;;;;69.78;46.33;;;;;;;;;;5070769;28;20473;-77
2022/06/04 10:27:39;;;;;;;77.38;48.08;;;;;;;;;;5070548;28;20487;-78
2022/06/04 10:30:11;;;;;;;86.82;53.35;;;;;;;;;;5069314;28;20124;-79
2022/06/04 10:32:40;;;;;;;73.60;51.03;;;;;;;;;;5070202;28;20027;-79
2022/06/04 10:35:12;;;;;;;70.38;48.15;;;;;;;;;;5069800;28;20029;-79
2022/06/04 10:37:53;;;;;;;72.63;49.40;;;;;;;;;;5059072;28;20017;-83
2022/06/04 10:40:32;;;;;;;86.07;51.83;;;;;;;;;;5063554;28;20075;-79
2022/06/04 10:43:16;;;;;;;78.20;48.88;;;;;;;;;;5065756;28;20024;-79
2022/06/04 10:45:48;;;;;;;73.60;51.65;;;;;;;;;;5055443;28;20039;-79
2022/06/04 10:48:17;;;;;;;81.95;53.78;;;;;;;;;;5066054;28;20465;-79
2022/06/04 10:53:46;;;;;;;78.88;49.47;;;;;;;;;;5061484;28;20712;-80
2022/06/04 10:56:19;;;;;;;76.97;50.08;;;;;;;;;;5065847;28;20083;-78
2022/06/04 10:58:59;;;;;;;74.80;49.88;;;;;;;;;;5059116;28;20020;-79
2022/06/04 11:01:39;;;;;;;80.95;51.53;;;;;;;;;;5054908;28;20031;-79
2022/06/04 11:04:22;;;;;;;76.65;51.85;;;;;;;;;;5049573;28;20085;-79
2022/06/04 11:07:14;;;;;;;82.05;52.53;;;;;;;;;;5039988;28;20024;-78
2022/06/04 11:09:41;;;;;;;78.00;51.35;;;;;;;;;;5061897;28;20035;-80
2022/06/04 11:12:34;;;;;;;72.32;51.15;;;;;;;;;;5056874;28;20100;-79
2022/06/04 11:15:03;;;;;;;83.35;53.72;;;;;;;;;;5064773;28;20058;-79
2022/06/04 11:17:45;;;;;;;85.27;58.20;;;;;;;;;;5061182;28;20028;-80
2022/06/04 11:20:31;;;;;;;94.35;60.60;;;;;;;;;;5057860;28;20275;-80
2022/06/04 11:23:04;;;;;;;86.30;61.10;;;;;;;;;;5054560;28;20496;-82
2022/06/04 11:25:32;;;;;;;84.97;58.33;;;;;;;;;;5063650;28;20103;-79
2022/06/04 11:28:04;;;;;;;88.57;62.15;;;;;;;;;;5067275;28;20107;-83
2022/06/04 11:30:41;;;;;;;88.97;63.55;;;;;;;;;;5056384;28;20021;-82
2022/06/04 11:33:16;;;;;;;83.53;60.10;;;;;;;;;;5065073;28;20017;-83
2022/06/04 11:35:46;;;;;;;89.15;58.08;;;;;;;;;;5057551;28;20024;-79
2022/06/04 11:38:24;;;;;;;87.45;60.70;;;;;;;;;;5058215;28;20051;-80
2022/06/04 11:40:56;;;;;;;80.07;52.95;;;;;;;;;;5064118;28;20059;-83
2022/06/04 11:43:28;;;;;;;87.07;58.05;;;;;;;;;;5059385;28;20461;-84
2022/06/04 11:46:04;;;;;;;79.80;55.65;;;;;;;;;;5056456;28;20025;-83
2022/06/04 11:48:48;;;;;;;69.80;49.40;;;;;;;;;;5066136;28;20542;-83
2022/06/04 11:51:20;;;;;;;76.07;48.10;;;;;;;;;;5064030;28;20025;-87
2022/06/04 11:53:46;;;;;;;71.60;48.80;;;;;;;;;;5078963;28;20044;-85
2022/06/04 11:56:12;;;;;;;64.95;44.83;;;;;;;;;;5081336;28;20037;-85
2022/06/04 11:58:57;;;;;;;47.55;36.33;;;;;;;;;;5086304;28;20026;-84
2022/06/04 12:01:30;;;;;;;47.38;32.78;;;;;;;;;;5091505;28;20053;-85
2022/06/04 12:03:59;;;;;;;61.03;45.80;;;;;;;;;;5091130;28;20035;-85
2022/06/04 12:06:35;;;;;;;46.67;34.60;;;;;;;;;;5083983;28;20021;-84
2022/06/04 12:09:12;;;;;;;44.60;34.20;;;;;;;;;;5089000;28;20031;-87
2022/06/04 12:11:38;;;;;;;40.83;28.92;;;;;;;;;;5089783;28;20016;-83
2022/06/04 12:14:22;;;;;;;45.05;29.85;;;;;;;;;;5083943;28;20059;-82
2022/06/04 12:16:56;;;;;;;34.85;26.95;;;;;;;;;;5088304;28;20488;-80
2022/06/04 12:25:12;;;;;;;50.83;29.85;;;;;;;;;;5089847;28;20115;-81
2022/06/04 12:27:53;;;;;;;39.50;28.23;;;;;;;;;;5091588;28;20023;-82
2022/06/04 12:30:30;;;;;;;37.40;25.92;;;;;;;;;;5090192;28;20031;-82
2022/06/04 12:32:56;;;;;;;30.88;22.67;;;;;;;;;;5081198;28;20024;-82
2022/06/04 12:35:24;;;;;;;37.63;23.80;;;;;;;;;;5084527;28;20047;-83
2022/06/04 12:37:55;;;;;;;31.92;23.42;;;;;;;;;;5082059;28;20085;-82
2022/06/04 12:40:24;;;;;;;31.83;24.00;;;;;;;;;;5083123;28;20012;-82
2022/06/04 12:43:08;;;;;;;31.37;22.43;;;;;;;;;;5086269;28;20399;-81
2022/06/04 12:45:37;;;;;;;26.95;18.95;;;;;;;;;;5080127;28;20073;-82
2022/06/04 12:48:18;;;;;;;34.28;18.75;;;;;;;;;;5086897;28;20027;-88
2022/06/04 12:50:47;;;;;;;31.55;19.40;;;;;;;;;;5087140;28;20050;-88
2022/06/04 12:53:16;;;;;;;26.10;18.98;;;;;;;;;;5082263;28;21467;-85
2022/06/04 12:55:53;;;;;;;21.58;17.80;;;;;;;;;;5088415;28;20491;-86
2022/06/04 12:58:28;;;;;;;22.50;18.10;;;;;;;;;;5090660;28;20475;-88
2022/06/04 13:01:02;;;;;;;22.42;18.55;;;;;;;;;;5081703;28;20020;-90
2022/06/04 13:03:33;;;;;;;21.98;17.48;;;;;;;;;;5082660;28;20024;-90
2022/06/04 13:06:19;;;;;;;20.75;16.05;;;;;;;;;;5090925;28;20100;-92
2022/06/04 13:09:16;;;;;;;21.40;16.00;;;;;;;;;;5086577;28;20032;-88
2022/06/04 13:11:56;;;;;;;29.83;17.67;;;;;;;;;;5079357;28;20404;-89
2022/06/04 13:14:31;;;;;;;27.85;15.90;;;;;;;;;;5089661;28;20029;-89
2022/06/04 13:16:59;;;;;;;24.67;14.70;;;;;;;;;;5087205;28;20404;-84
2022/06/04 13:19:28;;;;;;;21.88;16.23;;;;;;;;;;5086788;28;20015;-81
2022/06/04 13:21:54;;;;;;;35.92;16.83;;;;;;;;;;5080038;28;20110;-81
2022/06/04 13:24:22;;;;;;;16.60;14.85;;;;;;;;;;5085230;28;20028;-81
2022/06/04 13:26:58;;;;;;;18.85;14.85;;;;;;;;;;5089294;28;20468;-82
2022/06/04 13:29:26;;;;;;;25.27;14.82;;;;;;;;;;5082998;28;20368;-82
2022/06/04 13:31:54;;;;;;;22.35;15.52;;;;;;;;;;5080658;28;20103;-82
2022/06/04 13:34:23;;;;;;;19.77;15.70;;;;;;;;;;5087480;28;20028;-81
2022/06/04 13:36:55;;;;;;;21.05;16.55;;;;;;;;;;5086812;28;20095;-82
2022/06/04 13:39:22;;;;;;;18.30;15.55;;;;;;;;;;5081976;28;20042;-82
2022/06/04 13:42:01;;;;;;;23.40;15.40;;;;;;;;;;5085049;28;20026;-82
2022/06/04 13:44:30;;;;;;;23.15;15.73;;;;;;;;;;5075436;28;20028;-82
2022/06/04 13:47:05;;;;;;;31.80;16.13;;;;;;;;;;5080870;28;20028;-82
2022/06/04 13:49:32;;;;;;;17.33;15.48;;;;;;;;;;5088684;28;20153;-82
2022/06/04 13:52:09;;;;;;;18.02;15.00;;;;;;;;;;5085290;28;20044;-82
2022/06/04 13:54:38;;;;;;;26.88;16.55;;;;;;;;;;5066740;28;20049;-79
2022/06/04 13:57:14;;;;;;;24.25;17.90;;;;;;;;;;5064096;28;20029;-83
2022/06/04 13:59:48;;;;;;;24.08;19.25;;;;;;;;;;5068218;28;20055;-82
2022/06/04 14:02:16;;;;;;;26.15;21.42;;;;;;;;;;5064497;28;20060;-83
2022/06/04 14:07:46;;;;;;;28.20;21.42;;;;;;;;;;5062900;28;20062;-82
2022/06/04 14:10:20;;;;;;;27.05;20.98;;;;;;;;;;5059693;28;20021;-82
2022/06/04 14:12:53;;;;;;;33.97;23.63;;;;;;;;;;5063100;28;20778;-81
2022/06/04 14:15:36;;;;;;;33.55;24.80;;;;;;;;;;5065095;28;20114;-82
2022/06/04 14:18:22;;;;;;;32.60;23.67;;;;;;;;;;5062442;28;20476;-82
2022/06/04 14:20:48;;;;;;;35.78;25.15;;;;;;;;;;5060405;28;20020;-81
2022/06/04 14:23:33;;;;;;;44.55;26.48;;;;;;;;;;5060270;28;20032;-84
2022/06/04 14:25:59;;;;;;;41.80;25.70;;;;;;;;;;5062236;28;20351;-82
2022/06/04 14:28:25;;;;;;;40.03;26.75;;;;;;;;;;5051032;28;20020;-82
2022/06/04 14:30:51;;;;;;;36.17;27.90;;;;;;;;;;5057900;28;20150;-82
2022/06/04 14:33:19;;;;;;;38.15;28.95;;;;;;;;;;5058607;28;20487;-81
2022/06/04 14:35:55;;;;;;;42.25;27.92;;;;;;;;;;5056768;28;20059;-80
2022/06/04 14:38:22;;;;;;;68.78;43.00;;;;;;;;;;5059863;28;20016;-81
2022/06/04 14:40:59;;;;;;;71.45;44.70;;;;;;;;;;5078045;28;20032;-81
2022/06/04 14:43:25;;;;;;;77.65;47.85;;;;;;;;;;5074529;28;20020;-82
2022/06/04 14:46:03;;;;;;;74.93;50.53;;;;;;;;;;5075561;28;20024;-81
2022/06/04 14:48:44;;;;;;;80.30;50.92;;;;;;;;;;5074970;28;20016;-80
2022/06/04 14:51:34;;;;;;;81.18;49.60;;;;;;;;;;5066843;28;20036;-82
2022/06/04 14:54:03;;;;;;;83.85;52.47;;;;;;;;;;5019828;28;20044;-81
2022/06/04 14:56:47;;;;;;;88.47;53.07;;;;;;;;;;5072974;28;20140;-83
2022/06/04 14:59:14;;;;;;;87.70;57.05;;;;;;;;;;5071941;28;20383;-82